Time;durP1;ratioP1;P1;durP2;ratioP2;P2;SDS_P1;SDS_P2;PMS_P1;PMS_P2;Temp;Humidity;BMP_temperature;BMP_pressure;BME280_temperature;BME280_humidity;BME280_pressure;Samples;Min_cycle;Max_cycle;Signal;HPM_P1;HPM_P2
2022/04/21 00:01:04;;;;;;;8.80;4.55;;;;;;;9.75;62.90;101409.22;5071224;28;20367;-51
2022/04/21 00:03:32;;;;;;;9.13;4.75;;;;;;;9.72;64.34;101411.97;5069697;28;20072;-54
2022/04/21 00:06:01;;;;;;;8.77;4.63;;;;;;;9.74;64.64;101415.38;5065435;28;20048;-53
2022/04/21 00:08:29;;;;;;;9.32;4.78;;;;;;;9.70;65.43;101409.44;5069005;28;20036;-52
2022/04/21 00:10:59;;;;;;;9.73;5.85;;;;;;;9.57;67.01;101409.25;5070349;28;20411;-52
2022/04/21 00:13:27;;;;;;;10.93;4.95;;;;;;;9.66;67.45;101407.06;5070793;28;20484;-51
2022/04/21 00:15:56;;;;;;;10.10;5.32;;;;;;;9.66;67.95;101407.06;5070860;28;20071;-50
2022/04/21 00:18:24;;;;;;;11.18;5.35;;;;;;;9.67;68.20;101406.97;5067415;28;20041;-51
2022/04/21 00:20:52;;;;;;;9.05;5.32;;;;;;;9.60;68.84;101406.44;5068983;28;20127;-52
2022/04/21 00:23:29;;;;;;;9.15;5.10;;;;;;;9.68;68.99;101408.69;5073109;28;20053;-52
2022/04/21 00:26:00;;;;;;;12.63;5.28;;;;;;;9.63;69.62;101406.28;5074618;28;20771;-52
2022/04/21 00:28:29;;;;;;;9.63;5.65;;;;;;;9.60;70.25;101397.72;5074257;28;20037;-54
2022/04/21 00:30:58;;;;;;;9.80;5.32;;;;;;;9.61;70.64;101400.28;5071591;28;20044;-51
2022/04/21 00:33:27;;;;;;;9.77;5.05;;;;;;;9.59;71.77;101404.75;5070057;28;20087;-54
2022/04/21 00:35:55;;;;;;;10.55;5.20;;;;;;;9.59;72.08;101401.28;5072395;28;20080;-51
2022/04/21 00:38:23;;;;;;;11.27;6.43;;;;;;;9.50;73.27;101394.72;5073703;28;20087;-51
2022/04/21 00:40:51;;;;;;;11.77;5.35;;;;;;;9.41;73.89;101396.06;5072348;28;20052;-49
2022/04/21 00:43:22;;;;;;;11.00;6.00;;;;;;;9.49;74.13;101400.91;5067883;28;20040;-52
2022/04/21 00:45:54;;;;;;;10.95;5.90;;;;;;;9.48;74.75;101388.72;5071868;28;20123;-52
2022/04/21 00:48:23;;;;;;;10.57;6.38;;;;;;;9.41;74.97;101393.41;5073571;28;20049;-52
2022/04/21 00:50:51;;;;;;;10.43;5.70;;;;;;;9.43;75.14;101380.22;5073849;28;20055;-52
2022/04/21 00:53:20;;;;;;;13.10;6.35;;;;;;;9.44;75.18;101387.16;5073791;28;20483;-53
2022/04/21 00:55:48;;;;;;;10.05;5.85;;;;;;;9.36;76.41;101384.09;5073933;28;20045;-49
2022/04/21 00:58:17;;;;;;;9.27;5.82;;;;;;;9.36;77.21;101382.31;5074039;28;20483;-53
2022/04/21 01:00:47;;;;;;;11.43;6.05;;;;;;;9.17;78.13;101373.69;5070181;28;20061;-53
2022/04/21 01:03:15;;;;;;;10.73;6.10;;;;;;;9.08;78.46;101375.84;5069303;28;20054;-49
2022/04/21 01:05:43;;;;;;;11.52;6.03;;;;;;;9.08;78.62;101374.97;5073980;28;20572;-53
2022/04/21 01:08:12;;;;;;;11.32;6.53;;;;;;;9.06;78.96;101371.59;5073669;28;20174;-53
2022/04/21 01:10:41;;;;;;;11.15;6.78;;;;;;;9.02;79.41;101376.13;5073478;28;20046;-50
2022/04/21 01:13:12;;;;;;;11.45;6.30;;;;;;;9.01;79.80;101373.59;5073778;28;20450;-52
2022/04/21 01:15:41;;;;;;;10.05;6.47;;;;;;;9.01;79.66;101377.06;5072979;28;20052;-51
2022/04/21 01:18:11;;;;;;;10.48;6.00;;;;;;;9.01;80.17;101377.06;5072907;28;20052;-47
2022/04/21 01:20:41;;;;;;;11.30;6.20;;;;;;;9.02;80.19;101373.53;5071405;28;20044;-50
2022/04/21 01:23:09;;;;;;;12.98;7.03;;;;;;;9.05;80.31;101376.00;5068751;28;20052;-53
2022/04/21 01:25:39;;;;;;;12.75;7.15;;;;;;;8.99;80.93;101371.06;5071630;28;20044;-51
2022/04/21 01:28:09;;;;;;;12.77;6.68;;;;;;;9.02;80.92;101377.94;5068993;28;20446;-52
2022/04/21 01:30:38;;;;;;;13.20;6.93;;;;;;;9.01;81.08;101379.69;5068757;28;20449;-52
2022/04/21 01:33:07;;;;;;;11.63;6.70;;;;;;;9.07;80.97;101373.31;5073090;28;20056;-54
2022/04/21 01:35:36;;;;;;;12.82;7.07;;;;;;;9.08;81.25;101370.59;5070199;28;20036;-48
2022/04/21 01:43:43;;;;;;;12.77;7.10;;;;;;;8.94;82.34;101368.69;5069354;28;20048;-53
2022/04/21 01:46:12;;;;;;;11.02;6.30;;;;;;;9.06;81.87;101376.84;5072806;28;20496;-51
2022/04/21 01:48:42;;;;;;;11.85;6.28;;;;;;;9.10;81.29;101376.59;5072421;28;20050;-49
2022/04/21 01:51:10;;;;;;;11.18;6.60;;;;;;;9.10;81.34;101381.84;5072639;28;20598;-51
2022/04/21 01:53:40;;;;;;;10.13;6.70;;;;;;;9.08;81.96;101372.34;5068466;28;20048;-53
2022/04/21 01:56:09;;;;;;;10.85;6.50;;;;;;;9.07;81.26;101378.56;5069514;28;20139;-53
2022/04/21 01:58:37;;;;;;;11.23;6.78;;;;;;;9.11;81.21;101374.84;5072182;28;20044;-51
2022/04/21 02:01:06;;;;;;;14.35;7.10;;;;;;;8.97;81.53;101367.66;5069071;28;20045;-54
2022/04/21 02:03:34;;;;;;;10.18;5.97;;;;;;;8.92;82.63;101365.25;5068118;28;20507;-54
2022/04/21 02:06:03;;;;;;;10.50;6.18;;;;;;;8.91;82.29;101366.19;5071808;28;20090;-52
2022/04/21 02:08:31;;;;;;;12.35;6.55;;;;;;;8.82;83.01;101364.03;5072148;28;20048;-49
2022/04/21 02:11:01;;;;;;;11.02;6.25;;;;;;;8.76;83.64;101359.09;5069488;28;20522;-52
2022/04/21 02:13:29;;;;;;;11.45;6.60;;;;;;;8.65;84.45;101364.00;5067561;28;20106;-53
2022/04/21 02:15:57;;;;;;;10.35;6.43;;;;;;;8.69;84.81;101363.78;5070869;28;20060;-53
2022/04/21 02:18:26;;;;;;;11.73;6.45;;;;;;;8.72;84.32;101365.41;5072186;28;20036;-50
2022/04/21 02:20:54;;;;;;;11.20;6.63;;;;;;;8.73;84.74;101367.94;5072171;28;20074;-51
2022/04/21 02:23:22;;;;;;;11.52;6.45;;;;;;;8.76;84.43;101369.56;5071988;28;20110;-52
2022/04/21 02:25:51;;;;;;;10.45;6.10;;;;;;;8.74;84.77;101368.78;5072378;28;20372;-49
2022/04/21 02:28:22;;;;;;;10.77;6.15;;;;;;;8.68;84.24;101361.22;5072195;28;20044;-51
2022/04/21 02:30:50;;;;;;;11.15;6.28;;;;;;;8.63;84.89;101358.84;5071980;28;20040;-52
2022/04/21 02:33:18;;;;;;;13.05;6.45;;;;;;;8.59;84.58;101362.53;5071798;28;20041;-50
2022/04/21 02:35:47;;;;;;;12.93;6.68;;;;;;;8.60;85.15;101359.84;5072317;28;20538;-54
2022/04/21 02:38:15;;;;;;;13.05;6.15;;;;;;;8.50;85.51;101358.56;5072114;28;20110;-55
2022/04/21 02:40:45;;;;;;;10.32;6.13;;;;;;;8.53;84.96;101358.41;5068368;28;20573;-53
2022/04/21 02:43:13;;;;;;;10.23;6.30;;;;;;;8.56;85.02;101354.81;5064647;28;20565;-52
2022/04/21 02:45:43;;;;;;;11.88;6.72;;;;;;;8.59;84.14;101352.91;5071533;28;20044;-51
2022/04/21 02:48:12;;;;;;;12.27;6.22;;;;;;;8.58;84.36;101351.19;5071941;28;20053;-54
2022/04/21 02:50:40;;;;;;;11.50;6.78;;;;;;;8.57;84.39;101346.88;5069192;28;20495;-52
2022/04/21 02:53:08;;;;;;;11.43;5.93;;;;;;;8.58;84.19;101345.94;5067229;28;20052;-50
2022/04/21 02:58:23;;;;;;;9.65;5.65;;;;;;;8.48;84.95;101339.47;5071059;28;20102;-49
2022/04/21 03:00:53;;;;;;;12.02;6.43;;;;;;;8.47;84.33;101340.38;5069727;28;20051;-50
2022/04/21 03:03:21;;;;;;;10.70;5.90;;;;;;;8.50;84.59;101336.75;5067181;28;20178;-58
2022/04/21 03:05:49;;;;;;;10.20;6.38;;;;;;;8.50;84.42;101344.63;5069582;28;20041;-59
2022/04/21 03:08:18;;;;;;;10.35;5.30;;;;;;;8.49;84.65;101346.38;5071347;28;20064;-50
2022/04/21 03:10:46;;;;;;;11.02;6.30;;;;;;;8.46;84.31;101344.75;5071639;28;20519;-49
2022/04/21 03:13:14;;;;;;;11.80;5.95;;;;;;;8.45;84.17;101344.84;5071802;28;20036;-51
2022/04/21 03:15:42;;;;;;;10.82;6.20;;;;;;;8.41;84.56;101349.38;5071631;28;20279;-51
2022/04/21 03:18:12;;;;;;;11.25;6.03;;;;;;;8.33;85.21;101351.50;5071643;28;20109;-51
2022/04/21 03:26:14;;;;;;;9.95;5.85;;;;;;;8.26;85.30;101342.22;5071261;28;20072;-48
2022/04/21 03:28:42;;;;;;;10.98;6.35;;;;;;;8.19;85.58;101343.44;5071491;28;20060;-49
2022/04/21 03:31:11;;;;;;;11.93;6.28;;;;;;;8.21;85.63;101344.22;5070932;28;20048;-53
2022/04/21 03:33:41;;;;;;;13.77;5.93;;;;;;;8.17;85.97;101343.50;5067174;28;20093;-51
2022/04/21 03:36:09;;;;;;;10.32;5.80;;;;;;;8.20;86.19;101350.38;5067997;28;20060;-50
2022/04/21 03:38:39;;;;;;;12.00;6.10;;;;;;;8.12;86.61;101343.69;5070257;28;20048;-49
2022/04/21 03:41:07;;;;;;;10.77;5.47;;;;;;;8.11;86.77;101347.28;5071264;28;20127;-50
2022/04/21 03:43:35;;;;;;;8.32;5.28;;;;;;;8.07;86.86;101350.97;5071169;28;20048;-53
2022/04/21 03:46:04;;;;;;;11.30;6.20;;;;;;;8.08;86.62;101351.78;5071419;28;20403;-51
2022/04/21 03:48:32;;;;;;;10.15;6.55;;;;;;;8.04;86.91;101355.47;5070407;28;20056;-57
2022/04/21 03:51:02;;;;;;;11.80;6.38;;;;;;;7.95;87.14;101364.63;5071157;28;20037;-58
2022/04/21 03:53:31;;;;;;;9.82;6.05;;;;;;;7.89;87.66;101357.88;5072525;28;20036;-58
2022/04/21 03:55:59;;;;;;;12.18;6.03;;;;;;;7.91;88.22;101361.28;5075275;28;20539;-58
2022/04/21 03:58:27;;;;;;;10.52;5.38;;;;;;;7.90;87.78;101359.56;5074631;28;20041;-57
2022/04/21 04:00:55;;;;;;;11.45;6.20;;;;;;;7.87;88.55;101362.34;5069792;28;20040;-57
2022/04/21 04:03:24;;;;;;;11.52;5.97;;;;;;;7.79;88.81;101359.22;5071815;28;20055;-58
2022/04/21 04:05:52;;;;;;;11.38;6.68;;;;;;;7.79;88.19;101360.06;5074702;28;20048;-57
2022/04/21 04:11:10;;;;;;;9.63;6.30;;;;;;;7.87;87.82;101364.13;5074883;28;20040;-57
2022/04/21 04:13:38;;;;;;;9.68;5.47;;;;;;;7.76;87.84;101369.84;5074469;28;20052;-58
2022/04/21 04:16:07;;;;;;;10.25;5.32;;;;;;;7.74;87.29;101374.28;5074455;28;20052;-58
2022/04/21 04:18:35;;;;;;;10.60;5.82;;;;;;;7.73;87.26;101380.44;5071887;28;20037;-58
2022/04/21 04:21:03;;;;;;;11.38;6.00;;;;;;;7.69;87.60;101378.88;5061026;28;20543;-57
2022/04/21 04:23:33;;;;;;;9.32;5.60;;;;;;;7.64;88.51;101383.47;5054058;28;20407;-57
2022/04/21 04:26:01;;;;;;;12.25;6.30;;;;;;;7.60;88.96;101383.59;5054498;28;20467;-58
2022/04/21 04:28:31;;;;;;;10.35;5.50;;;;;;;7.57;88.50;101373.28;5054500;28;20139;-57
2022/04/21 04:31:00;;;;;;;12.18;5.82;;;;;;;7.54;89.35;101367.31;5053354;28;20553;-57
2022/04/21 04:33:28;;;;;;;9.60;5.95;;;;;;;7.57;88.35;101383.75;5051752;28;20427;-58
2022/04/21 04:35:56;;;;;;;9.82;5.25;;;;;;;7.56;88.48;101382.03;5049235;28;20384;-58
2022/04/21 04:38:24;;;;;;;9.50;5.22;;;;;;;7.61;88.38;101382.69;5054356;28;20443;-56
2022/04/21 04:40:54;;;;;;;8.80;5.15;;;;;;;7.52;88.37;101383.09;5054009;28;20041;-57
2022/04/21 04:43:22;;;;;;;9.38;5.60;;;;;;;7.54;88.91;101383.00;5054205;28;20622;-57
2022/04/21 04:48:36;;;;;;;9.73;5.60;;;;;;;7.48;89.48;101383.28;5053398;28;20044;-56
2022/04/21 04:51:04;;;;;;;9.68;5.35;;;;;;;7.45;89.40;101389.50;5053432;28;20037;-58
2022/04/21 04:53:33;;;;;;;9.80;5.30;;;;;;;7.42;90.04;101382.63;5053463;28;20076;-58
2022/04/21 04:56:03;;;;;;;10.85;5.90;;;;;;;7.42;90.79;101379.19;5053361;28;20051;-58
2022/04/21 04:58:31;;;;;;;8.82;5.45;;;;;;;7.39;90.60;101384.53;5053409;28;20052;-57
2022/04/21 05:01:01;;;;;;;10.98;5.50;;;;;;;7.46;90.32;101378.13;5053986;28;20410;-57
2022/04/21 05:03:29;;;;;;;11.60;5.80;;;;;;;7.44;90.43;101375.59;5053919;28;20450;-57
2022/04/21 05:05:57;;;;;;;11.10;5.55;;;;;;;7.47;90.08;101377.19;5052854;28;20114;-57
2022/04/21 05:08:26;;;;;;;11.05;5.97;;;;;;;7.37;90.47;101376.75;5053294;28;20052;-58
2022/04/21 05:10:59;;;;;;;8.52;5.28;;;;;;;7.40;90.61;101375.75;5049515;28;20072;-57
2022/04/21 05:13:30;;;;;;;10.90;5.38;;;;;;;7.35;90.72;101370.75;5048138;28;20060;-58
2022/04/21 05:15:58;;;;;;;12.40;5.20;;;;;;;7.43;91.22;101376.50;5053073;28;20092;-57
2022/04/21 05:18:27;;;;;;;9.77;5.60;;;;;;;7.41;91.37;101372.25;5053483;28;20055;-56
2022/04/21 05:20:56;;;;;;;11.02;5.38;;;;;;;7.36;90.87;101371.59;5053619;28;20076;-58
2022/04/21 05:23:25;;;;;;;9.13;5.15;;;;;;;7.40;90.77;101375.75;5053374;28;20166;-57
2022/04/21 05:25:54;;;;;;;11.73;5.30;;;;;;;7.39;90.36;101369.69;5049059;28;20102;-57
2022/04/21 05:28:24;;;;;;;8.65;4.70;;;;;;;7.36;90.42;101374.19;5048100;28;20044;-58
2022/04/21 05:30:58;;;;;;;10.07;5.80;;;;;;;7.34;90.42;101386.50;5051690;28;20072;-58
2022/04/21 05:33:28;;;;;;;10.52;5.50;;;;;;;7.32;91.32;101372.63;5049201;28;20095;-58
2022/04/21 05:35:59;;;;;;;12.13;5.63;;;;;;;7.41;90.89;101375.69;5051606;28;20408;-57
2022/04/21 05:38:29;;;;;;;8.38;5.20;;;;;;;7.46;90.45;101362.44;5052794;28;20059;-57
2022/04/21 05:40:58;;;;;;;10.68;5.82;;;;;;;7.49;89.74;101361.44;5053073;28;20045;-57
2022/04/21 05:43:31;;;;;;;9.55;5.50;;;;;;;7.44;89.84;101362.50;5050874;28;20057;-57
2022/04/21 05:46:01;;;;;;;10.27;5.35;;;;;;;7.52;89.78;101358.69;5048528;28;20503;-58
2022/04/21 05:48:30;;;;;;;9.30;5.05;;;;;;;7.56;89.97;101374.19;5051477;28;20080;-57
2022/04/21 05:51:00;;;;;;;9.30;5.05;;;;;;;7.60;89.41;101370.50;5048590;28;20037;-57
2022/04/21 05:53:29;;;;;;;8.57;4.97;;;;;;;7.63;89.70;101372.16;5049023;28;20087;-57
2022/04/21 05:55:57;;;;;;;10.02;4.97;;;;;;;7.71;90.13;101367.41;5052849;28;20102;-57
2022/04/21 05:58:26;;;;;;;10.23;5.03;;;;;;;7.82;89.56;101373.94;5052674;28;20569;-57
2022/04/21 06:00:54;;;;;;;11.60;5.35;;;;;;;7.87;89.08;101359.72;5048801;28;20059;-57
2022/04/21 06:03:31;;;;;;;11.88;5.30;;;;;;;7.91;89.67;101366.53;5048342;28;20084;-57
2022/04/21 06:05:59;;;;;;;8.85;5.28;;;;;;;8.01;89.12;101371.34;5052887;28;20057;-57
2022/04/21 06:08:27;;;;;;;9.60;4.97;;;;;;;8.09;88.40;101372.69;5048993;28;20048;-58
2022/04/21 06:10:57;;;;;;;11.57;5.60;;;;;;;8.22;87.83;101372.97;5047309;28;20049;-58
2022/04/21 06:13:26;;;;;;;8.38;4.97;;;;;;;8.28;87.12;101370.03;5049999;28;20049;-58
2022/04/21 06:15:55;;;;;;;9.10;4.93;;;;;;;8.42;86.33;101374.63;5052288;28;20060;-57
2022/04/21 06:18:23;;;;;;;11.57;5.28;;;;;;;8.46;86.15;101376.22;5048006;28;20102;-57
2022/04/21 06:20:53;;;;;;;10.82;4.97;;;;;;;8.48;84.77;101370.94;5049067;28;20376;-57
2022/04/21 06:23:22;;;;;;;11.10;4.80;;;;;;;8.59;84.94;101373.03;5051640;28;20076;-58
2022/04/21 06:25:58;;;;;;;10.00;5.95;;;;;;;8.66;83.92;101369.19;5051472;28;20041;-57
2022/04/21 06:28:27;;;;;;;10.10;5.57;;;;;;;8.76;83.39;101370.41;5052063;28;20099;-56
2022/04/21 06:30:56;;;;;;;9.65;6.15;;;;;;;8.84;83.01;101361.34;5052092;28;20053;-57
2022/04/21 06:33:25;;;;;;;9.77;5.60;;;;;;;8.89;82.87;101364.56;5052135;28;20065;-57
2022/04/21 06:35:54;;;;;;;9.85;5.60;;;;;;;8.99;82.67;101362.34;5052090;28;20051;-58
2022/04/21 06:38:23;;;;;;;8.60;5.20;;;;;;;9.07;81.90;101363.66;5051900;28;20037;-58
2022/04/21 06:40:51;;;;;;;10.90;5.28;;;;;;;9.18;81.11;101354.41;5052012;28;20060;-58
2022/04/21 06:48:51;;;;;;;8.85;5.18;;;;;;;9.54;80.15;101353.41;5051969;28;20458;-58
2022/04/21 06:51:20;;;;;;;9.70;5.57;;;;;;;9.62;80.30;101356.47;5051672;28;20037;-58
2022/04/21 06:53:49;;;;;;;9.88;5.30;;;;;;;9.67;79.13;101353.59;5051868;28;20084;-58
2022/04/21 06:56:17;;;;;;;11.32;5.80;;;;;;;9.79;79.79;101361.66;5052004;28;20479;-57
2022/04/21 06:58:50;;;;;;;9.98;6.32;;;;;;;9.92;78.74;101364.47;5051478;28;20414;-58
2022/04/21 07:01:18;;;;;;;10.15;5.60;;;;;;;10.06;77.12;101363.75;5052050;28;20053;-57
2022/04/21 07:03:47;;;;;;;11.30;5.20;;;;;;;10.14;77.01;101360.69;5051552;28;20064;-57
2022/04/21 07:06:15;;;;;;;9.77;5.10;;;;;;;10.31;76.63;101367.66;5047164;28;20056;-58
2022/04/21 07:08:45;;;;;;;9.63;5.75;;;;;;;10.46;76.54;101363.34;5048250;28;20124;-58
2022/04/21 07:11:15;;;;;;;8.98;4.63;;;;;;;10.61;73.34;101370.34;5051712;28;20491;-57
2022/04/21 07:13:43;;;;;;;12.35;4.60;;;;;;;10.64;72.18;101375.44;5051593;28;20041;-58
2022/04/21 07:16:11;;;;;;;7.95;4.70;;;;;;;10.70;71.30;101376.03;5051752;28;20040;-59
2022/04/21 07:18:40;;;;;;;8.32;4.10;;;;;;;10.80;70.20;101372.78;5050032;28;20076;-59
2022/04/21 07:21:09;;;;;;;11.30;4.57;;;;;;;10.93;69.80;101370.28;5051660;28;20051;-59
2022/04/21 07:23:39;;;;;;;11.00;4.68;;;;;;;11.13;68.40;101365.63;5049434;28;20059;-59
2022/04/21 07:26:08;;;;;;;9.55;4.43;;;;;;;11.35;68.80;101367.00;5046014;28;20116;-59
2022/04/21 07:28:37;;;;;;;7.93;4.50;;;;;;;11.55;68.68;101366.63;5051260;28;20543;-57
2022/04/21 07:31:06;;;;;;;8.98;4.95;;;;;;;11.77;68.35;101365.31;5055419;28;20124;-58
2022/04/21 07:33:34;;;;;;;9.63;4.70;;;;;;;11.91;68.19;101370.56;5055535;28;20132;-58
2022/04/21 07:36:03;;;;;;;8.82;4.18;;;;;;;12.05;67.38;101374.16;5055482;28;20091;-58
2022/04/21 07:38:34;;;;;;;7.18;4.20;;;;;;;12.20;66.51;101370.53;5055267;28;20124;-58
2022/04/21 07:41:03;;;;;;;8.50;4.78;;;;;;;12.38;64.35;101370.31;5055479;28;20049;-52
2022/04/21 07:43:34;;;;;;;9.27;4.18;;;;;;;12.48;64.83;101358.25;5055140;28;20033;-53
2022/04/21 07:46:03;;;;;;;6.55;3.85;;;;;;;12.76;63.87;101359.06;5051050;28;20045;-53
2022/04/21 07:51:14;;;;;;;6.53;3.67;;;;;;;13.14;60.73;101366.19;5056136;28;20068;-53
2022/04/21 07:53:42;;;;;;;7.25;4.00;;;;;;;13.30;60.10;101352.81;5054774;28;20040;-53
2022/04/21 07:56:17;;;;;;;6.10;3.42;;;;;;;13.40;59.14;101358.31;5055240;28;20049;-54
2022/04/21 07:58:47;;;;;;;5.60;3.45;;;;;;;13.53;58.54;101364.47;5054873;28;20182;-50
2022/04/21 08:01:16;;;;;;;8.85;3.55;;;;;;;13.59;57.45;101360.53;5055549;28;20056;-52
2022/04/21 08:03:44;;;;;;;7.78;3.65;;;;;;;13.75;56.77;101358.50;5054640;28;20099;-54
2022/04/21 08:06:12;;;;;;;8.27;3.97;;;;;;;13.88;55.96;101357.63;5050746;28;20400;-55
2022/04/21 08:08:41;;;;;;;8.95;3.85;;;;;;;14.06;55.25;101360.75;5050136;28;20091;-52
2022/04/21 08:11:09;;;;;;;9.07;3.60;;;;;;;14.16;54.94;101360.00;5054946;28;20037;-53
2022/04/21 08:13:38;;;;;;;7.20;3.50;;;;;;;14.26;53.71;101362.84;5054820;28;20471;-53
2022/04/21 08:16:08;;;;;;;5.95;2.97;;;;;;;14.27;53.62;101372.44;5055021;28;20117;-51
2022/04/21 08:18:36;;;;;;;7.47;3.58;;;;;;;14.36;52.06;101368.31;5051718;28;20060;-49
2022/04/21 08:21:04;;;;;;;6.60;3.40;;;;;;;14.39;52.09;101368.06;5050025;28;20041;-53
2022/04/21 08:32:33;;;;;;;6.78;3.10;;;;;;;14.60;52.04;101376.25;5052564;28;20040;-54
2022/04/21 08:32:41;;;;;;;10.15;3.63;;;;;;;15.16;50.47;101366.81;5052313;28;20064;-50
2022/04/21 08:35:13;;;;;;;5.47;3.08;;;;;;;15.09;48.36;101361.13;5050248;28;20403;-53
2022/04/21 08:37:42;;;;;;;8.10;3.10;;;;;;;15.39;47.61;101359.75;5053272;28;20053;-52
2022/04/21 08:40:11;;;;;;;6.55;3.40;;;;;;;15.43;47.02;101357.72;5053522;28;20155;-49
2022/04/21 08:42:43;;;;;;;7.20;3.05;;;;;;;15.56;47.14;101363.75;5054619;28;20045;-56
2022/04/21 08:45:13;;;;;;;7.13;2.83;;;;;;;15.71;47.11;101365.19;5052293;28;20076;-53
2022/04/21 08:47:46;;;;;;;5.40;3.13;;;;;;;15.67;45.41;101360.25;5049710;28;20102;-53
2022/04/21 08:50:16;;;;;;;5.78;3.00;;;;;;;15.55;44.24;101364.72;5053906;28;20124;-53
2022/04/21 08:52:45;;;;;;;5.40;2.95;;;;;;;15.77;44.98;101363.88;5054235;28;20087;-53
2022/04/21 08:55:13;;;;;;;8.02;3.13;;;;;;;16.06;44.89;101366.06;5054115;28;20045;-48
2022/04/21 08:57:41;;;;;;;4.68;2.63;;;;;;;16.13;43.61;101361.94;5054065;28;20048;-53
2022/04/21 09:00:10;;;;;;;5.35;2.63;;;;;;;16.14;43.51;101353.03;5053760;28;20057;-50
2022/04/21 09:02:40;;;;;;;6.55;3.05;;;;;;;16.35;43.86;101354.91;5053731;28;20139;-51
2022/04/21 09:05:10;;;;;;;6.55;2.83;;;;;;;16.33;42.60;101357.69;5052907;28;20056;-59
2022/04/21 09:07:46;;;;;;;4.90;2.58;;;;;;;16.48;42.68;101352.91;5048640;28;20135;-59
2022/04/21 09:10:34;;;;;;;5.97;2.70;;;;;;;16.58;41.48;101350.34;5052273;28;20120;-59
2022/04/21 09:13:04;;;;;;;6.72;2.70;;;;;;;16.52;41.18;101350.84;5053810;28;20538;-51
2022/04/21 09:15:36;;;;;;;5.22;2.53;;;;;;;16.63;41.50;101358.75;5049149;28;20057;-53
2022/04/21 09:18:10;;;;;;;5.55;2.70;;;;;;;16.58;41.12;101347.69;5050474;28;20139;-51
2022/04/21 09:20:40;;;;;;;6.20;2.70;;;;;;;16.86;40.74;101350.69;5053452;28;20098;-53
2022/04/21 09:23:11;;;;;;;6.07;2.80;;;;;;;17.03;40.14;101342.19;5053547;28;20410;-49
2022/04/21 09:25:47;;;;;;;5.32;2.63;;;;;;;16.86;40.22;101334.75;5049316;28;20049;-51
2022/04/21 09:28:22;;;;;;;5.95;2.60;;;;;;;17.18;40.12;101332.06;5048148;28;20044;-58
2022/04/21 09:30:52;;;;;;;5.15;2.60;;;;;;;17.44;38.29;101331.63;5053716;28;20041;-58
2022/04/21 09:33:28;;;;;;;6.97;2.50;;;;;;;17.34;39.29;101334.25;5053519;28;20056;-58
2022/04/21 09:35:58;;;;;;;4.82;2.42;;;;;;;17.73;39.48;101326.41;5053148;28;20053;-59
2022/04/21 09:38:27;;;;;;;5.63;2.50;;;;;;;17.64;38.86;101326.38;5052610;28;20368;-58
2022/04/21 09:40:55;;;;;;;5.40;2.20;;;;;;;17.64;36.80;101326.38;5048564;28;20052;-59
2022/04/21 09:43:28;;;;;;;5.07;1.88;;;;;;;17.81;37.00;101325.75;5049451;28;20033;-59
2022/04/21 09:46:11;;;;;;;4.53;1.83;;;;;;;17.56;36.43;101311.94;5053281;28;20049;-59
2022/04/21 09:48:40;;;;;;;4.20;2.10;;;;;;;17.94;37.57;101317.53;5053032;28;20049;-59
2022/04/21 09:51:12;;;;;;;6.38;2.58;;;;;;;17.90;35.74;101321.41;5051408;28;20045;-59
2022/04/21 09:54:00;;;;;;;3.77;1.97;;;;;;;18.14;35.63;101326.41;5048953;28;20383;-59
2022/04/21 09:56:32;;;;;;;5.80;2.47;;;;;;;18.16;36.13;101319.13;5051179;28;20084;-59
2022/04/21 09:59:02;;;;;;;5.85;2.05;;;;;;;18.16;35.98;101323.59;5052257;28;20075;-58
2022/04/21 10:01:30;;;;;;;5.18;1.90;;;;;;;18.54;34.66;101317.47;5052380;28;20045;-54
2022/04/21 10:04:00;;;;;;;4.97;2.25;;;;;;;18.49;34.57;101310.91;5052449;28;20526;-52
2022/04/21 10:06:31;;;;;;;4.55;2.33;;;;;;;18.45;35.28;101312.97;5052743;28;20084;-53
2022/04/21 10:09:00;;;;;;;5.07;2.13;;;;;;;18.50;35.88;101301.91;5052569;28;20052;-53
2022/04/21 10:11:29;;;;;;;6.65;2.45;;;;;;;18.78;34.70;101307.34;5052540;28;20531;-53
2022/04/21 10:13:58;;;;;;;4.43;2.53;;;;;;;18.89;34.65;101305.38;5048165;28;20053;-54
2022/04/21 10:16:29;;;;;;;3.97;2.10;;;;;;;19.08;33.88;101303.69;5049310;28;20442;-52
2022/04/21 10:18:59;;;;;;;4.93;2.15;;;;;;;19.07;33.59;101297.50;5052782;28;20049;-54
2022/04/21 10:21:32;;;;;;;3.78;2.00;;;;;;;19.22;34.34;101291.69;5052097;28;20053;-56
2022/04/21 10:24:01;;;;;;;6.25;2.30;;;;;;;19.22;34.41;101289.03;5051975;28;20118;-54
2022/04/21 10:26:37;;;;;;;4.55;2.10;;;;;;;19.62;33.69;101282.56;5049427;28;20049;-53
2022/04/21 10:29:17;;;;;;;5.22;2.65;;;;;;;19.60;33.10;101281.84;5046921;28;20049;-54
2022/04/21 10:31:48;;;;;;;3.78;1.92;;;;;;;19.61;33.68;101277.38;5049502;28;20095;-56
2022/04/21 10:34:32;;;;;;;5.93;2.25;;;;;;;19.28;32.86;101275.13;5051981;28;20053;-52
2022/04/21 10:37:15;;;;;;;5.95;2.33;;;;;;;19.62;33.31;101266.56;5051946;28;20081;-53
2022/04/21 10:40:04;;;;;;;5.05;2.67;;;;;;;19.54;34.22;101269.13;5050896;28;20048;-58
2022/04/21 10:42:57;;;;;;;5.30;2.58;;;;;;;19.88;34.32;101269.34;5052277;28;20049;-60
2022/04/21 10:45:28;;;;;;;7.25;2.90;;;;;;;19.88;33.69;101269.34;5051853;28;20127;-54
2022/04/21 10:48:08;;;;;;;6.10;2.40;;;;;;;19.84;33.49;101265.31;5050202;28;20144;-57
2022/04/21 10:50:38;;;;;;;3.20;2.00;;;;;;;19.90;33.59;101263.88;5047737;28;20045;-52
2022/04/21 10:58:52;;;;;;;5.43;2.45;;;;;;;20.05;32.28;101264.19;5049131;28;20048;-53
2022/04/21 11:01:31;;;;;;;5.10;2.67;;;;;;;20.01;32.30;101260.97;5051868;28;20044;-55
2022/04/21 11:04:08;;;;;;;4.97;2.60;;;;;;;19.86;31.88;101255.31;5049768;28;20099;-54
2022/04/21 11:06:42;;;;;;;4.60;2.20;;;;;;;19.98;32.39;101244.44;5046825;28;20407;-54
2022/04/21 11:09:36;;;;;;;4.47;2.40;;;;;;;19.93;32.90;101244.88;5049279;28;20048;-55
2022/04/21 11:12:45;;;;;;;7.13;3.20;;;;;;;20.13;32.85;101239.41;5051670;28;20693;-53
2022/04/21 11:15:35;;;;;;;4.55;2.60;;;;;;;20.08;32.63;101239.84;5051702;28;20045;-53
2022/04/21 11:18:08;;;;;;;6.65;2.45;;;;;;;19.89;31.74;101240.84;5051760;28;20443;-58
2022/04/21 11:20:37;;;;;;;5.32;2.05;;;;;;;19.71;32.79;101243.44;5051757;28;20106;-55
2022/04/21 11:23:08;;;;;;;5.85;2.55;;;;;;;19.69;33.26;101238.28;5050215;28;20128;-56
2022/04/21 11:25:38;;;;;;;5.85;2.50;;;;;;;20.34;32.51;101244.41;5042423;28;20810;-54
2022/04/21 11:28:07;;;;;;;4.00;2.55;;;;;;;20.60;31.02;101239.09;5048602;28;20098;-59
2022/04/21 11:30:35;;;;;;;5.20;2.70;;;;;;;20.40;31.46;101236.63;5051580;28;20067;-59
2022/04/21 11:33:10;;;;;;;6.53;2.60;;;;;;;20.25;31.61;101224.81;5051737;28;20565;-51
2022/04/21 11:35:39;;;;;;;8.70;3.00;;;;;;;20.57;31.56;101226.06;5051509;28;20069;-57
2022/04/21 11:38:07;;;;;;;5.70;2.63;;;;;;;20.52;31.19;101220.34;5051560;28;20072;-54
2022/04/21 11:40:38;;;;;;;5.68;2.53;;;;;;;20.58;30.72;101215.19;5051610;28;20064;-52
2022/04/21 11:43:15;;;;;;;5.38;2.65;;;;;;;20.75;31.50;101215.34;5050357;28;20048;-52
2022/04/21 11:45:54;;;;;;;5.70;2.40;;;;;;;21.14;31.22;101211.38;5046683;28;20072;-54
2022/04/21 11:48:29;;;;;;;5.28;2.58;;;;;;;20.96;30.76;101212.28;5048490;28;20140;-53
2022/04/21 11:50:57;;;;;;;4.72;2.67;;;;;;;21.16;31.56;101204.03;5051468;28;20107;-54
2022/04/21 11:53:29;;;;;;;5.93;3.13;;;;;;;21.18;30.07;101208.22;5051600;28;20124;-54
2022/04/21 11:55:59;;;;;;;5.70;2.88;;;;;;;20.88;30.62;101204.25;5051480;28;20056;-56
2022/04/21 11:58:29;;;;;;;5.43;2.55;;;;;;;21.68;30.32;101203.88;5050310;28;20048;-56
2022/04/21 12:06:40;;;;;;;5.78;2.65;;;;;;;21.74;30.59;101197.84;5042229;28;20061;-58
2022/04/21 12:09:15;;;;;;;4.90;2.72;;;;;;;21.58;29.95;101195.16;5051699;28;20503;-59
2022/04/21 12:11:49;;;;;;;4.55;2.53;;;;;;;21.31;30.28;101191.72;5051204;28;20047;-60
2022/04/21 12:14:18;;;;;;;7.32;2.78;;;;;;;21.21;30.76;101196.34;5051622;28;20057;-60
2022/04/21 12:16:47;;;;;;;6.75;2.78;;;;;;;20.74;31.20;101194.97;5054491;28;20124;-60
2022/04/21 12:19:26;;;;;;;7.43;3.25;;;;;;;20.76;31.10;101196.50;5054699;28;20045;-60
2022/04/21 12:21:58;;;;;;;5.82;2.60;;;;;;;20.78;31.15;101185.66;5051775;28;20052;-60
2022/04/21 12:24:31;;;;;;;7.45;2.80;;;;;;;21.24;31.33;101196.88;5049239;28;20104;-59
2022/04/21 12:27:02;;;;;;;6.78;2.97;;;;;;;21.24;30.83;101202.22;5053183;28;20099;-58